createdAt,value
2017-11-08T00:01:52.493Z,4.70
2017-11-08T00:04:20.080Z,4.70
2017-11-08T00:06:47.656Z,4.70
2017-11-08T00:09:15.227Z,4.80
2017-11-08T00:11:42.790Z,4.70
2017-11-08T00:14:11.974Z,4.70
2017-11-08T00:16:39.608Z,4.80
2017-11-08T00:19:07.201Z,4.80
2017-11-08T00:21:40.489Z,4.80
2017-11-08T00:24:12.623Z,4.80
2017-11-08T00:26:40.230Z,4.90
2017-11-08T00:29:07.789Z,4.90
2017-11-08T00:31:36.067Z,4.90
2017-11-08T00:34:03.650Z,4.90
2017-11-08T00:36:31.230Z,4.80
2017-11-08T00:38:59.951Z,4.80
2017-11-08T00:41:27.531Z,4.80
2017-11-08T00:43:55.097Z,4.80
2017-11-08T00:46:22.663Z,4.80
2017-11-08T00:48:50.276Z,4.80
2017-11-08T00:51:21.039Z,4.70
2017-11-08T00:53:48.598Z,4.70
2017-11-08T00:56:17.052Z,4.70
2017-11-08T00:58:44.645Z,4.70
2017-11-08T01:01:13.108Z,4.70
2017-11-08T01:03:41.472Z,4.60
2017-11-08T01:06:09.823Z,4.60
2017-11-08T01:08:37.415Z,4.60
2017-11-08T01:11:04.986Z,4.50
2017-11-08T01:13:32.621Z,4.40
2017-11-08T01:16:00.208Z,4.40
2017-11-08T01:18:27.792Z,4.40
2017-11-08T01:20:55.403Z,4.40
2017-11-08T01:23:23.020Z,4.40
2017-11-08T01:25:51.692Z,4.40
2017-11-08T01:28:19.305Z,4.40
2017-11-08T01:30:47.645Z,4.30
2017-11-08T01:33:15.258Z,4.30
2017-11-08T01:35:43.630Z,4.30
2017-11-08T01:38:12.890Z,4.30
2017-11-08T01:40:43.108Z,4.20
2017-11-08T01:43:11.646Z,4.20
2017-11-08T01:45:42.286Z,4.10
2017-11-08T01:48:10.602Z,4.00
2017-11-08T01:50:39.146Z,4.00
2017-11-08T01:53:07.458Z,3.80
2017-11-08T01:55:38.944Z,3.80
2017-11-08T01:58:06.521Z,3.80
2017-11-08T02:00:34.148Z,3.80
2017-11-08T02:03:01.743Z,3.70
2017-11-08T02:05:29.327Z,3.80
2017-11-08T02:07:56.961Z,3.80
2017-11-08T02:10:24.518Z,3.80
2017-11-08T02:12:52.116Z,3.80
2017-11-08T02:15:19.763Z,3.70
2017-11-08T02:17:51.652Z,3.70
2017-11-08T02:20:19.632Z,3.80
2017-11-08T02:22:47.306Z,3.80
2017-11-08T02:25:14.889Z,3.80
2017-11-08T02:27:42.471Z,3.80
2017-11-08T02:30:11.206Z,3.80
2017-11-08T02:32:45.422Z,3.80
2017-11-08T02:35:19.669Z,3.80
2017-11-08T02:37:48.038Z,3.90
2017-11-08T02:40:15.658Z,3.90
2017-11-08T02:42:43.242Z,3.80
2017-11-08T02:45:10.852Z,3.80
2017-11-08T02:47:39.187Z,3.90
2017-11-08T02:50:06.834Z,3.90
2017-11-08T02:52:34.386Z,3.80
2017-11-08T02:55:02.755Z,3.80
2017-11-08T02:57:31.781Z,3.70
2017-11-08T02:59:59.349Z,3.70
2017-11-08T03:02:29.544Z,3.70
2017-11-08T03:04:57.918Z,3.70
2017-11-08T03:07:25.488Z,3.70
2017-11-08T03:09:53.021Z,3.70
2017-11-08T03:12:21.308Z,3.60
2017-11-08T03:14:49.231Z,3.70
2017-11-08T03:17:16.865Z,3.70
2017-11-08T03:19:46.055Z,3.50
2017-11-08T03:22:14.049Z,3.50
2017-11-08T03:24:42.446Z,3.50
2017-11-08T03:27:10.205Z,3.50
2017-11-08T03:29:39.418Z,3.50
2017-11-08T03:32:07.730Z,3.40
2017-11-08T03:34:35.305Z,3.40
2017-11-08T03:37:03.287Z,3.50
2017-11-08T03:39:30.847Z,3.50
2017-11-08T03:41:59.214Z,3.40
2017-11-08T03:44:27.997Z,3.50
2017-11-08T03:46:55.631Z,3.50
2017-11-08T03:49:23.978Z,3.50
2017-11-08T03:51:51.611Z,3.50
2017-11-08T03:54:19.242Z,3.60
2017-11-08T03:56:47.179Z,3.60
2017-11-08T03:59:14.796Z,3.70
2017-11-08T04:01:43.136Z,3.70
2017-11-08T04:04:21.041Z,3.70
2017-11-08T04:06:48.727Z,3.70
2017-11-08T04:09:16.283Z,3.80
2017-11-08T04:11:43.834Z,3.80
2017-11-08T04:14:11.482Z,3.80
2017-11-08T04:16:39.286Z,3.80
2017-11-08T04:19:07.639Z,3.80
2017-11-08T04:21:35.661Z,3.80
2017-11-08T04:24:04.072Z,3.90
2017-11-08T04:26:33.192Z,3.80
2017-11-08T04:29:00.796Z,4.00
2017-11-08T04:31:29.932Z,4.00
2017-11-08T04:33:57.497Z,4.10
2017-11-08T04:36:25.463Z,4.10
2017-11-08T04:38:53.543Z,4.20
2017-11-08T04:41:21.680Z,4.30
2017-11-08T04:43:49.268Z,4.30
2017-11-08T04:46:17.597Z,4.30
2017-11-08T04:48:45.265Z,4.30
2017-11-08T04:51:12.864Z,4.30
2017-11-08T04:53:40.594Z,4.30
2017-11-08T04:56:08.189Z,4.20
2017-11-08T04:58:35.797Z,4.10
2017-11-08T05:01:04.155Z,4.10
2017-11-08T05:03:32.599Z,4.10
2017-11-08T05:06:00.218Z,4.00
2017-11-08T05:08:28.574Z,3.90
2017-11-08T05:10:56.436Z,3.90
2017-11-08T05:13:24.226Z,3.90
2017-11-08T05:15:52.658Z,3.70
2017-11-08T05:18:20.245Z,3.70
2017-11-08T05:20:47.855Z,3.70
2017-11-08T05:23:16.311Z,3.60
2017-11-08T05:25:43.907Z,3.60
2017-11-08T05:28:13.160Z,3.60
2017-11-08T05:30:40.745Z,3.60
2017-11-08T05:33:08.307Z,3.60
2017-11-08T05:35:36.531Z,3.60
2017-11-08T05:38:06.723Z,3.60
2017-11-08T05:40:49.654Z,3.50
2017-11-08T05:43:17.187Z,3.50
2017-11-08T05:45:44.771Z,3.50
2017-11-08T05:48:17.658Z,3.50
2017-11-08T05:50:45.556Z,3.50
2017-11-08T05:53:13.893Z,3.50
2017-11-08T05:55:41.504Z,3.40
2017-11-08T05:58:09.838Z,3.50
2017-11-08T06:00:38.281Z,3.50
2017-11-08T06:03:06.595Z,3.50
2017-11-08T06:05:34.185Z,3.50
2017-11-08T06:08:01.760Z,3.50
2017-11-08T06:10:29.325Z,3.40
2017-11-08T06:12:58.509Z,3.40
2017-11-08T06:15:26.141Z,3.40
2017-11-08T06:17:53.736Z,3.30
2017-11-08T06:20:21.329Z,3.30
2017-11-08T06:22:49.629Z,3.30
2017-11-08T06:25:18.017Z,3.30
2017-11-08T06:27:45.555Z,3.30
2017-11-08T06:30:13.149Z,3.30
2017-11-08T06:32:40.863Z,3.30
2017-11-08T06:35:08.420Z,3.30
2017-11-08T06:37:36.019Z,3.30
2017-11-08T06:40:04.345Z,3.30
2017-11-08T06:42:31.904Z,3.30
2017-11-08T06:44:59.462Z,3.30
2017-11-08T06:47:27.024Z,3.30
2017-11-08T06:49:54.598Z,3.30
2017-11-08T06:52:22.259Z,3.30
2017-11-08T06:54:49.817Z,3.30
2017-11-08T06:57:22.207Z,3.30
2017-11-08T06:59:49.746Z,3.40
2017-11-08T07:02:19.076Z,3.50
2017-11-08T07:04:46.769Z,3.40
2017-11-08T07:07:14.349Z,3.50
2017-11-08T07:09:41.943Z,3.50
2017-11-08T07:12:10.287Z,3.60
2017-11-08T07:14:37.846Z,3.60
2017-11-08T07:17:05.403Z,3.70
2017-11-08T07:19:32.996Z,3.80
2017-11-08T07:22:00.557Z,3.90
2017-11-08T07:24:28.124Z,3.90
2017-11-08T07:26:55.689Z,4.10
2017-11-08T07:29:23.238Z,4.30
2017-11-08T07:31:50.826Z,4.40
2017-11-08T07:34:18.406Z,4.50
2017-11-08T07:36:46.759Z,4.70
2017-11-08T07:39:14.341Z,4.70
2017-11-08T07:41:41.915Z,4.80
2017-11-08T07:44:10.250Z,5.10
2017-11-08T07:46:38.817Z,5.10
2017-11-08T07:49:06.383Z,5.20
2017-11-08T07:51:33.944Z,5.30
2017-11-08T07:54:07.115Z,5.40
2017-11-08T07:56:35.501Z,5.60
2017-11-08T07:59:03.075Z,5.60
2017-11-08T08:01:30.658Z,5.60
2017-11-08T08:03:58.252Z,5.80
2017-11-08T08:06:25.823Z,6.00
2017-11-08T08:08:53.371Z,6.30
2017-11-08T08:11:20.913Z,6.40
2017-11-08T08:13:48.511Z,6.40
2017-11-08T08:16:16.081Z,6.60
2017-11-08T08:18:44.666Z,6.40
2017-11-08T08:21:16.068Z,6.50
2017-11-08T08:23:43.643Z,6.70
2017-11-08T08:26:11.215Z,6.80
2017-11-08T08:28:38.781Z,6.70
2017-11-08T08:31:06.372Z,6.80
2017-11-08T08:33:33.932Z,6.50
2017-11-08T08:36:01.518Z,6.40
2017-11-08T08:38:29.063Z,6.30
2017-11-08T08:40:56.616Z,6.40
2017-11-08T08:43:24.161Z,6.60
2017-11-08T08:45:51.927Z,6.70
2017-11-08T08:48:20.260Z,6.50
2017-11-08T08:50:48.596Z,6.50
2017-11-08T08:53:16.165Z,6.50
2017-11-08T08:55:43.743Z,6.60
2017-11-08T08:58:11.326Z,6.40
2017-11-08T09:00:38.862Z,6.50
2017-11-08T09:03:06.470Z,6.50
2017-11-08T09:05:34.043Z,6.50
2017-11-08T09:08:01.622Z,6.50
2017-11-08T09:10:29.959Z,6.80
2017-11-08T09:12:57.536Z,6.70
2017-11-08T09:15:25.121Z,6.80
2017-11-08T09:17:52.696Z,6.70
2017-11-08T09:20:27.009Z,6.80
2017-11-08T09:22:54.546Z,6.80
2017-11-08T09:25:22.143Z,6.80
2017-11-08T09:27:50.490Z,6.70
2017-11-08T09:30:18.066Z,6.70
2017-11-08T09:32:45.649Z,6.70
2017-11-08T09:35:13.208Z,6.70
2017-11-08T09:37:46.510Z,6.70
2017-11-08T09:40:14.841Z,6.90
2017-11-08T09:42:42.430Z,6.90
2017-11-08T09:45:11.892Z,6.90
2017-11-08T09:47:39.476Z,7.00
2017-11-08T09:50:07.014Z,7.10
2017-11-08T09:52:36.223Z,7.30
2017-11-08T09:55:03.787Z,7.30
2017-11-08T09:57:31.361Z,7.70
2017-11-08T09:59:58.916Z,8.10
2017-11-08T10:02:26.476Z,8.30
2017-11-08T10:04:54.818Z,8.00
2017-11-08T10:07:22.389Z,8.00
2017-11-08T10:09:52.073Z,8.10
2017-11-08T10:12:19.547Z,8.00
2017-11-08T10:14:47.098Z,7.80
2017-11-08T10:17:14.629Z,7.80
2017-11-08T10:19:42.197Z,7.60
2017-11-08T10:22:10.553Z,7.40
2017-11-08T10:24:44.606Z,7.40
2017-11-08T10:27:12.189Z,7.30
2017-11-08T10:29:39.721Z,7.20
2017-11-08T10:32:07.438Z,7.30
2017-11-08T10:34:34.994Z,7.20
2017-11-08T10:37:02.540Z,7.10
2017-11-08T10:39:30.391Z,7.30
2017-11-08T10:41:58.009Z,7.40
2017-11-08T10:44:25.580Z,7.50
2017-11-08T10:46:53.917Z,7.60
2017-11-08T10:49:21.479Z,7.60
2017-11-08T10:51:49.073Z,7.70
2017-11-08T10:54:18.493Z,7.40
2017-11-08T10:56:46.077Z,7.40
2017-11-08T10:59:19.376Z,7.40
2017-11-08T11:01:47.388Z,7.60
2017-11-08T11:04:15.020Z,7.60
2017-11-08T11:06:42.635Z,7.70
2017-11-08T11:09:11.065Z,7.70
2017-11-08T11:11:38.663Z,7.60
2017-11-08T11:14:11.070Z,7.40
2017-11-08T11:16:39.425Z,7.30
2017-11-08T11:19:12.917Z,7.30
2017-11-08T11:21:40.531Z,7.50
2017-11-08T11:24:12.906Z,7.60
2017-11-08T11:26:42.176Z,7.40
2017-11-08T11:29:10.607Z,7.40
2017-11-08T11:31:38.179Z,7.40
2017-11-08T11:34:05.776Z,7.30
2017-11-08T11:36:33.413Z,7.20
2017-11-08T11:39:01.003Z,7.20
2017-11-08T11:41:28.678Z,7.20
2017-11-08T11:43:56.279Z,7.20
2017-11-08T11:46:23.927Z,7.30
2017-11-08T11:48:54.269Z,7.30
2017-11-08T11:51:25.888Z,7.30
2017-11-08T11:53:53.469Z,7.20
2017-11-08T11:56:21.033Z,7.20
2017-11-08T11:58:48.596Z,7.10
2017-11-08T12:01:16.149Z,7.00
2017-11-08T12:03:43.744Z,6.90
2017-11-08T12:06:11.323Z,6.90
2017-11-08T12:08:38.911Z,6.90
2017-11-08T12:11:07.292Z,7.00
2017-11-08T12:13:34.853Z,7.00
2017-11-08T12:16:03.230Z,7.10
2017-11-08T12:18:31.588Z,7.00
2017-11-08T12:20:59.196Z,7.00
2017-11-08T12:23:27.548Z,7.20
2017-11-08T12:25:55.190Z,7.20
2017-11-08T12:28:23.534Z,7.30
2017-11-08T12:30:51.117Z,7.50
2017-11-08T12:33:18.698Z,7.60
2017-11-08T12:35:48.265Z,7.60
2017-11-08T12:38:16.594Z,7.90
2017-11-08T12:40:44.201Z,7.90
2017-11-08T12:43:13.740Z,7.80
2017-11-08T12:45:41.332Z,7.90
2017-11-08T12:48:09.410Z,8.00
2017-11-08T12:50:37.203Z,8.10
2017-11-08T12:53:04.815Z,8.10
2017-11-08T12:55:32.639Z,8.00
2017-11-08T12:58:00.249Z,8.10
2017-11-08T13:00:28.024Z,8.20
2017-11-08T13:02:55.856Z,8.30
2017-11-08T13:05:29.579Z,8.20
2017-11-08T13:07:57.896Z,7.90
2017-11-08T13:10:26.267Z,7.90
2017-11-08T13:12:54.002Z,7.90
2017-11-08T13:15:21.610Z,7.90
2017-11-08T13:17:49.243Z,7.90
2017-11-08T13:20:17.576Z,7.90
2017-11-08T13:22:45.176Z,7.80
2017-11-08T13:25:12.998Z,7.80
2017-11-08T13:27:40.656Z,7.80
2017-11-08T13:30:12.316Z,7.70
2017-11-08T13:32:44.719Z,7.60
2017-11-08T13:35:15.994Z,7.60
2017-11-08T13:37:47.873Z,7.50
2017-11-08T13:40:19.961Z,7.70
2017-11-08T13:42:52.307Z,7.80
2017-11-08T13:45:29.068Z,7.70
2017-11-08T13:48:01.657Z,7.80
2017-11-08T13:50:33.658Z,7.90
2017-11-08T13:53:06.781Z,8.10
2017-11-08T13:55:40.785Z,8.20
2017-11-08T13:58:11.709Z,8.10
2017-11-08T14:00:43.419Z,7.90
2017-11-08T14:03:14.981Z,7.80
2017-11-08T14:05:46.531Z,7.60
2017-11-08T14:08:18.573Z,7.50
2017-11-08T14:10:51.523Z,7.50
2017-11-08T14:13:26.750Z,7.40
2017-11-08T14:15:59.672Z,7.30
2017-11-08T14:18:27.253Z,7.30
2017-11-08T14:20:54.819Z,7.30
2017-11-08T14:23:22.376Z,7.30
2017-11-08T14:25:49.962Z,7.30
2017-11-08T14:28:17.527Z,7.20
2017-11-08T14:30:45.073Z,7.10
2017-11-08T14:33:12.679Z,7.00
2017-11-08T14:35:43.002Z,7.00
2017-11-08T14:38:11.376Z,6.80
2017-11-08T14:40:38.930Z,6.80
2017-11-08T14:43:06.567Z,6.80
2017-11-08T14:45:34.877Z,6.70
2017-11-08T14:48:02.445Z,6.60
2017-11-08T14:50:30.078Z,6.60
2017-11-08T14:56:06.898Z,6.60
2017-11-08T14:58:34.481Z,6.60
2017-11-08T15:01:02.053Z,6.50
2017-11-08T15:03:30.595Z,6.50
2017-11-08T15:05:58.190Z,6.40
2017-11-08T15:08:25.763Z,6.30
2017-11-08T15:10:58.168Z,6.30
2017-11-08T15:13:25.743Z,6.30
2017-11-08T15:15:53.281Z,6.30
2017-11-08T15:18:21.666Z,6.20
2017-11-08T15:20:50.014Z,6.20
2017-11-08T15:23:20.454Z,6.20
2017-11-08T15:25:48.101Z,6.20
2017-11-08T15:28:15.681Z,6.00
2017-11-08T15:30:43.241Z,5.90
2017-11-08T15:33:10.832Z,5.90
2017-11-08T15:35:38.425Z,5.70
2017-11-08T15:38:06.013Z,5.80
2017-11-08T15:40:33.603Z,5.70
2017-11-08T15:43:01.224Z,5.70
2017-11-08T15:45:28.828Z,5.70
2017-11-08T15:47:56.437Z,5.80
2017-11-08T15:50:24.785Z,5.80
2017-11-08T15:52:52.341Z,5.80
2017-11-08T15:55:19.919Z,5.80
2017-11-08T15:57:47.494Z,5.90
2017-11-08T16:00:15.061Z,5.90
2017-11-08T16:02:43.538Z,5.90
2017-11-08T16:05:12.253Z,5.80
2017-11-08T16:07:40.591Z,5.70
2017-11-08T16:10:08.209Z,5.70
2017-11-08T16:12:38.131Z,5.70
2017-11-08T16:15:05.908Z,5.70
2017-11-08T16:17:39.202Z,5.60
2017-11-08T16:20:20.707Z,5.60
2017-11-08T16:22:49.125Z,5.60
2017-11-08T16:25:17.815Z,5.60
2017-11-08T16:27:49.655Z,5.60
2017-11-08T16:30:21.647Z,5.70
2017-11-08T16:32:52.703Z,5.60
2017-11-08T16:35:23.474Z,5.60
2017-11-08T16:37:53.790Z,5.60
2017-11-08T16:40:25.330Z,5.60
2017-11-08T16:42:55.447Z,5.60
2017-11-08T16:45:25.185Z,5.60
2017-11-08T16:47:54.453Z,5.60
2017-11-08T16:50:25.884Z,5.60
2017-11-08T16:56:14.330Z,5.70
2017-11-08T16:58:45.479Z,5.70
2017-11-08T17:01:26.108Z,5.70
2017-11-08T17:03:55.497Z,5.80
2017-11-08T17:06:23.471Z,5.80
2017-11-08T17:08:51.902Z,5.80
2017-11-08T17:11:22.568Z,5.80
2017-11-08T17:13:56.028Z,5.80
2017-11-08T17:16:26.714Z,5.90
2017-11-08T17:18:56.570Z,5.80
2017-11-08T17:21:25.951Z,5.80
2017-11-08T17:23:58.653Z,5.80
2017-11-08T17:26:27.636Z,5.80
2017-11-08T17:28:57.050Z,5.80
2017-11-08T17:34:04.469Z,5.90
2017-11-08T17:36:36.423Z,5.90
2017-11-08T17:41:44.309Z,5.90
2017-11-08T17:44:16.298Z,5.80
2017-11-08T17:46:48.077Z,5.80
2017-11-08T17:52:44.549Z,5.70
2017-11-08T17:57:56.866Z,5.70
2017-11-08T18:00:29.413Z,5.70
2017-11-08T18:02:59.513Z,5.70
2017-11-08T18:05:31.164Z,5.80
2017-11-08T18:08:04.362Z,5.80
2017-11-08T18:10:38.060Z,5.80
2017-11-08T18:13:17.999Z,5.70
2017-11-08T18:15:51.300Z,5.70
2017-11-08T18:18:23.515Z,5.70
2017-11-08T18:20:55.514Z,5.70
2017-11-08T18:26:17.178Z,5.80
2017-11-08T18:28:52.023Z,5.70
2017-11-08T18:31:23.598Z,5.70
2017-11-08T18:33:56.623Z,5.70
2017-11-08T18:36:52.757Z,5.80
2017-11-08T18:39:49.949Z,5.80
2017-11-08T18:42:23.280Z,5.80
2017-11-08T18:44:57.766Z,5.60
2017-11-08T18:53:41.597Z,5.80
2017-11-08T18:56:13.281Z,5.70
2017-11-08T18:59:21.184Z,5.60
2017-11-08T19:02:18.381Z,5.60
2017-11-08T19:04:49.885Z,5.60
2017-11-08T19:07:19.568Z,5.60
2017-11-08T19:13:34.455Z,5.70
2017-11-08T22:19:11.755Z,5.10
2017-11-08T22:21:39.340Z,5.10
2017-11-08T22:24:06.897Z,5.10
2017-11-08T22:26:35.260Z,5.10
2017-11-08T22:29:02.819Z,5.10
2017-11-08T22:31:30.378Z,5.10
2017-11-08T22:33:57.953Z,5.10
2017-11-08T22:36:25.630Z,5.20
2017-11-08T22:38:53.194Z,5.10
2017-11-08T22:41:20.777Z,5.10
2017-11-08T22:43:49.091Z,5.20
2017-11-08T22:46:16.666Z,5.10
2017-11-08T22:48:44.201Z,5.30
2017-11-08T22:51:11.812Z,5.20
2017-11-08T22:53:39.384Z,5.20
2017-11-08T22:56:06.947Z,5.20
2017-11-08T22:58:34.485Z,5.20
2017-11-08T23:01:02.091Z,5.20
2017-11-08T23:03:29.626Z,5.20
2017-11-08T23:05:57.198Z,5.30
2017-11-08T23:08:24.766Z,5.30
2017-11-08T23:10:52.316Z,5.30
2017-11-08T23:13:19.864Z,5.30
2017-11-08T23:15:47.404Z,5.30
2017-11-08T23:18:15.040Z,5.30
2017-11-08T23:20:42.620Z,5.30
2017-11-08T23:23:10.988Z,5.30
2017-11-08T23:25:38.563Z,5.30
2017-11-08T23:28:06.891Z,5.20
2017-11-08T23:30:34.464Z,5.20
2017-11-08T23:33:02.057Z,5.30
2017-11-08T23:35:29.858Z,5.20
2017-11-08T23:37:58.180Z,5.20
2017-11-08T23:40:25.771Z,5.20
2017-11-08T23:42:53.321Z,5.20
2017-11-08T23:45:20.861Z,5.20
2017-11-08T23:47:48.449Z,5.20
2017-11-08T23:50:16.011Z,5.20
2017-11-08T23:52:43.603Z,5.30
2017-11-08T23:55:11.138Z,5.30
2017-11-08T23:57:38.703Z,5.30
